Airport ID:KGOO
Update Time (UTC):18/06/2021 01:38
Wind Speed (Knots):3
Wind Direction (Magnetic):310
Temperature (°C):35
Dew Point (°C):-4
Humidity (%):8
Altimeter (inHg):29.91
Density Altitude (Feet):6100
Visibility:10+
Clouds (Hundreds of feet):CLR
Present Weather:
METAR:METAR KGOO 180135Z AUTO 00000KT 10SM CLR 35/M04 A2991 RMK A01

The data displayed is for advisory purposes only and is not to be used for flight planning or operations.